createdAt,value
2023-10-06T00:01:22.596Z,434.45
2023-10-06T00:04:00.378Z,420.10
2023-10-06T00:06:29.142Z,413.60
2023-10-06T00:08:59.666Z,424.15
2023-10-06T00:11:32.687Z,397.45
2023-10-06T00:14:08.610Z,402.83
2023-10-06T00:16:43.666Z,395.83
2023-10-06T00:19:28.075Z,375.85
2023-10-06T00:22:07.737Z,372.05
2023-10-06T00:24:38.068Z,364.15
2023-10-06T00:27:12.116Z,362.73
2023-10-06T00:29:45.058Z,386.92
2023-10-06T00:32:27.736Z,365.35
2023-10-06T00:35:09.682Z,367.80
2023-10-06T00:37:41.122Z,367.08
2023-10-06T00:40:13.133Z,367.17
2023-10-06T00:42:43.134Z,385.63
2023-10-06T00:45:13.509Z,365.80
2023-10-06T00:47:42.521Z,325.02
2023-10-06T00:50:16.986Z,309.05
2023-10-06T00:52:45.620Z,306.92
2023-10-06T00:55:15.771Z,298.83
2023-10-06T00:57:48.904Z,301.42
2023-10-06T01:00:23.000Z,310.70
2023-10-06T01:02:54.072Z,316.13
2023-10-06T01:05:26.831Z,329.30
2023-10-06T01:07:57.961Z,314.02
2023-10-06T01:10:35.879Z,309.60
2023-10-06T01:13:13.350Z,308.25
2023-10-06T01:15:50.634Z,303.35
2023-10-06T01:18:24.575Z,300.77
2023-10-06T01:20:56.285Z,301.48
2023-10-06T01:23:30.346Z,308.27
2023-10-06T01:26:01.456Z,302.58
2023-10-06T01:28:36.123Z,299.42
2023-10-06T01:31:07.799Z,300.05
2023-10-06T01:33:37.894Z,294.80
2023-10-06T01:36:16.413Z,295.45
2023-10-06T01:38:49.943Z,290.77
2023-10-06T01:41:23.024Z,282.80
2023-10-06T01:43:52.776Z,290.88
2023-10-06T01:48:51.324Z,240.68
2023-10-06T01:51:25.156Z,236.85
2023-10-06T01:53:55.235Z,237.82
2023-10-06T01:56:26.473Z,240.75
2023-10-06T01:58:58.688Z,228.15
2023-10-06T02:01:27.269Z,229.02
2023-10-06T02:03:56.232Z,223.82
2023-10-06T02:06:27.509Z,224.00
2023-10-06T02:08:59.996Z,218.68
2023-10-06T02:11:30.187Z,227.45
2023-10-06T02:14:00.011Z,228.05
2023-10-06T02:16:29.076Z,218.95
2023-10-06T02:18:58.910Z,233.82
2023-10-06T02:21:30.249Z,220.93
2023-10-06T02:24:04.965Z,214.18
2023-10-06T02:26:37.959Z,214.38
2023-10-06T02:29:17.724Z,211.00
2023-10-06T02:31:46.784Z,216.02
2023-10-06T02:34:23.046Z,208.65
2023-10-06T02:39:32.673Z,203.23
2023-10-06T02:42:04.048Z,213.07
2023-10-06T02:44:39.365Z,218.25
2023-10-06T02:47:12.499Z,203.10
2023-10-06T02:49:49.830Z,209.95
2023-10-06T02:52:22.333Z,218.55
2023-10-06T02:55:06.896Z,221.38
2023-10-06T02:57:37.748Z,221.05
2023-10-06T03:00:24.409Z,212.38
2023-10-06T03:02:56.917Z,205.93
2023-10-06T03:05:33.316Z,202.70
2023-10-06T03:08:10.477Z,187.45
2023-10-06T03:13:26.472Z,183.63
2023-10-06T03:15:55.125Z,178.88
2023-10-06T03:18:25.227Z,176.45
2023-10-06T03:21:01.618Z,182.90
2023-10-06T03:23:33.582Z,178.75
2023-10-06T03:26:07.864Z,179.48
2023-10-06T03:28:38.144Z,179.43
2023-10-06T03:31:24.365Z,178.85
2023-10-06T03:33:56.264Z,172.85
2023-10-06T03:36:38.322Z,173.43
2023-10-06T03:39:09.108Z,173.82
2023-10-06T03:41:45.479Z,174.25
2023-10-06T03:46:50.594Z,168.60
2023-10-06T03:49:20.784Z,169.57
2023-10-06T03:51:54.146Z,166.82
2023-10-06T03:54:22.963Z,165.85
2023-10-06T03:56:56.310Z,163.18
2023-10-06T03:59:27.701Z,170.88
2023-10-06T04:01:58.895Z,170.43
2023-10-06T04:04:29.095Z,172.30
2023-10-06T04:06:59.853Z,165.32
2023-10-06T04:09:31.146Z,170.10
2023-10-06T04:12:03.667Z,164.18
2023-10-06T04:14:35.476Z,164.30
2023-10-06T04:17:07.071Z,168.68
2023-10-06T04:19:36.568Z,171.73
2023-10-06T04:22:06.227Z,170.93
2023-10-06T04:24:37.033Z,172.38
2023-10-06T04:27:07.174Z,172.02
2023-10-06T04:29:39.457Z,173.52
2023-10-06T04:32:16.007Z,173.38
2023-10-06T04:34:45.968Z,172.65
2023-10-06T04:37:16.054Z,169.93
2023-10-06T04:39:45.776Z,168.95
2023-10-06T04:42:17.084Z,166.77
2023-10-06T04:44:49.714Z,166.98
2023-10-06T04:47:18.368Z,166.30
2023-10-06T04:52:18.388Z,166.68
2023-10-06T04:54:49.047Z,161.82
2023-10-06T04:57:20.155Z,158.23
2023-10-06T04:59:51.909Z,158.90
2023-10-06T05:02:24.765Z,158.18
2023-10-06T05:04:54.759Z,159.20
2023-10-06T05:07:25.584Z,158.13
2023-10-06T05:09:58.361Z,160.63
2023-10-06T05:12:28.232Z,161.73
2023-10-06T05:14:58.449Z,160.98
2023-10-06T05:17:28.817Z,153.30
2023-10-06T05:20:00.077Z,158.10
2023-10-06T05:22:29.847Z,157.98
2023-10-06T05:25:02.210Z,153.93
2023-10-06T05:27:35.364Z,152.57
2023-10-06T05:30:06.846Z,153.13
2023-10-06T05:32:36.599Z,154.32
2023-10-06T05:35:07.194Z,154.65
2023-10-06T05:37:35.860Z,154.05
2023-10-06T05:40:05.775Z,154.05
2023-10-06T05:42:37.555Z,154.05
2023-10-06T05:45:16.494Z,154.07
2023-10-06T05:47:48.783Z,153.52
2023-10-06T05:50:28.320Z,157.65
2023-10-06T05:53:01.621Z,155.80
2023-10-06T05:55:32.510Z,157.25
2023-10-06T05:58:05.325Z,146.93
2023-10-06T06:00:36.030Z,153.18
2023-10-06T06:03:11.544Z,150.80
2023-10-06T06:05:42.480Z,148.93
2023-10-06T06:08:12.323Z,146.88
2023-10-06T06:13:15.398Z,146.43
2023-10-06T06:15:46.982Z,149.02
2023-10-06T06:18:15.564Z,144.27
2023-10-06T06:20:47.163Z,145.55
2023-10-06T06:23:16.905Z,144.23
2023-10-06T06:25:48.117Z,144.93
2023-10-06T06:28:18.042Z,144.52
2023-10-06T06:30:49.620Z,144.05
2023-10-06T06:33:23.534Z,143.80
2023-10-06T06:35:52.740Z,148.95
2023-10-06T06:38:27.263Z,147.15
2023-10-06T06:41:00.377Z,148.07
2023-10-06T06:43:33.023Z,146.57
2023-10-06T06:46:03.204Z,143.07
2023-10-06T06:48:32.980Z,142.80
2023-10-06T06:51:02.671Z,140.93
2023-10-06T06:53:33.752Z,140.52
2023-10-06T06:56:08.178Z,137.90
2023-10-06T06:58:38.553Z,140.38
2023-10-06T07:01:16.213Z,140.68
2023-10-06T07:03:46.361Z,135.65
2023-10-06T07:06:17.795Z,133.90
2023-10-06T07:08:48.512Z,132.32
2023-10-06T07:11:19.479Z,135.13
2023-10-06T07:13:50.690Z,129.40
2023-10-06T07:16:22.919Z,129.35
2023-10-06T07:18:55.399Z,131.68
2023-10-06T07:21:25.366Z,124.28
2023-10-06T07:23:57.787Z,123.78
2023-10-06T07:26:29.027Z,123.40
2023-10-06T07:29:01.431Z,121.38
2023-10-06T07:31:31.186Z,123.18
2023-10-06T07:34:05.825Z,125.45
2023-10-06T07:39:09.902Z,127.07
2023-10-06T07:41:40.436Z,128.20
2023-10-06T07:44:10.607Z,129.15
2023-10-06T07:46:40.464Z,129.60
2023-10-06T07:49:10.203Z,127.45
2023-10-06T07:51:40.104Z,129.70
2023-10-06T07:54:10.980Z,125.45
2023-10-06T07:56:41.690Z,124.38
2023-10-06T07:59:13.343Z,125.18
2023-10-06T08:01:45.255Z,125.75
2023-10-06T08:04:14.817Z,120.45
2023-10-06T08:06:46.772Z,121.07
2023-10-06T08:09:18.586Z,122.95
2023-10-06T08:11:50.397Z,124.65
2023-10-06T08:14:21.779Z,124.15
2023-10-06T08:16:53.174Z,124.50
2023-10-06T08:19:23.166Z,128.25
2023-10-06T08:21:52.000Z,125.95
2023-10-06T08:24:22.072Z,125.75
2023-10-06T08:26:55.874Z,123.82
2023-10-06T08:29:28.288Z,124.13
2023-10-06T08:31:59.164Z,117.28
2023-10-06T08:34:30.321Z,123.15
2023-10-06T08:37:02.023Z,122.68
2023-10-06T08:39:41.143Z,124.00
2023-10-06T08:42:15.298Z,123.43
2023-10-06T08:44:48.052Z,126.30
2023-10-06T08:47:28.053Z,125.55
2023-10-06T08:50:03.037Z,123.47
2023-10-06T08:52:34.150Z,121.57
2023-10-06T08:55:03.843Z,119.43
2023-10-06T08:57:32.605Z,120.18
2023-10-06T09:00:07.903Z,124.03
2023-10-06T09:02:38.138Z,123.43
2023-10-06T09:05:12.583Z,125.30
2023-10-06T09:07:42.476Z,125.60
2023-10-06T09:10:19.539Z,123.97
2023-10-06T09:13:03.827Z,121.13
2023-10-06T09:15:37.332Z,116.30
2023-10-06T09:18:21.750Z,117.45
2023-10-06T09:20:51.641Z,117.15
2023-10-06T09:23:33.768Z,118.72
2023-10-06T09:26:04.351Z,117.88
2023-10-06T09:28:34.488Z,120.10
2023-10-06T09:31:11.727Z,117.90
2023-10-06T09:33:49.674Z,118.80
2023-10-06T09:36:40.654Z,116.10
2023-10-06T09:39:21.026Z,120.18
2023-10-06T09:41:53.131Z,117.18
2023-10-06T09:44:24.374Z,112.95
2023-10-06T09:46:55.608Z,115.43
2023-10-06T09:49:30.533Z,114.55
2023-10-06T09:52:03.932Z,115.43
2023-10-06T09:57:05.532Z,118.70
2023-10-06T09:59:35.345Z,112.90
2023-10-06T10:02:09.143Z,111.25
2023-10-06T10:04:38.274Z,109.82
2023-10-06T10:07:12.072Z,109.80
2023-10-06T10:09:44.888Z,113.18
2023-10-06T10:12:37.423Z,111.93
2023-10-06T10:15:27.288Z,117.93
2023-10-06T10:18:10.238Z,114.15
2023-10-06T10:20:41.831Z,114.10
2023-10-06T10:23:18.460Z,114.93
2023-10-06T10:25:48.818Z,112.93
2023-10-06T10:28:22.080Z,113.70
2023-10-06T10:31:00.952Z,112.70
2023-10-06T10:33:40.606Z,117.40
2023-10-06T10:36:27.034Z,118.20
2023-10-06T10:39:10.746Z,121.85
2023-10-06T10:41:43.957Z,118.53
2023-10-06T10:44:25.365Z,118.38
2023-10-06T10:47:04.280Z,120.45
2023-10-06T10:49:43.232Z,124.95
2023-10-06T10:52:14.485Z,124.65
2023-10-06T10:54:46.778Z,122.43
2023-10-06T10:57:22.970Z,118.88
2023-10-06T11:00:17.896Z,117.15
2023-10-06T11:05:35.346Z,116.20
2023-10-06T11:08:07.106Z,109.28
2023-10-06T11:10:39.461Z,107.38
2023-10-06T11:13:20.744Z,106.75
2023-10-06T11:15:51.912Z,105.38
2023-10-06T11:18:24.863Z,102.53
2023-10-06T11:20:56.633Z,102.47
2023-10-06T11:23:25.813Z,106.70
2023-10-06T11:25:56.946Z,105.78
2023-10-06T11:28:28.649Z,104.78
2023-10-06T11:30:59.934Z,109.13
2023-10-06T11:33:33.168Z,111.60
2023-10-06T11:36:07.071Z,115.70
2023-10-06T11:38:37.289Z,100.28
2023-10-06T11:41:07.486Z,97.07
2023-10-06T11:43:36.040Z,94.20
2023-10-06T11:46:07.328Z,99.97
2023-10-06T11:48:37.766Z,101.90
2023-10-06T11:51:15.709Z,98.97
2023-10-06T11:53:45.963Z,98.82
2023-10-06T11:56:19.070Z,99.85
2023-10-06T11:58:49.616Z,97.60
2023-10-06T12:01:34.280Z,92.22
2023-10-06T12:04:06.694Z,91.03
2023-10-06T12:06:41.484Z,91.28
2023-10-06T12:09:14.932Z,88.53
2023-10-06T12:11:45.985Z,88.13
2023-10-06T12:14:19.741Z,88.78
2023-10-06T12:16:50.899Z,87.53
2023-10-06T12:19:20.170Z,87.60
2023-10-06T12:21:50.250Z,90.47
2023-10-06T12:24:23.637Z,92.13
2023-10-06T12:26:52.537Z,94.63
2023-10-06T12:29:23.292Z,93.85
2023-10-06T12:31:53.319Z,97.95
2023-10-06T12:34:23.575Z,98.07
2023-10-06T12:37:04.163Z,100.03
2023-10-06T12:39:36.183Z,103.03
2023-10-06T12:42:09.309Z,107.75
2023-10-06T12:44:44.269Z,107.22
2023-10-06T12:47:15.451Z,114.55
2023-10-06T12:49:46.994Z,114.15
2023-10-06T12:52:22.694Z,116.20
2023-10-06T12:54:55.681Z,111.22
2023-10-06T12:57:25.553Z,113.85
2023-10-06T12:59:56.777Z,118.28
2023-10-06T13:02:27.229Z,118.90
2023-10-06T13:04:59.072Z,121.20
2023-10-06T13:07:32.617Z,117.78
2023-10-06T13:10:05.096Z,113.30
2023-10-06T13:12:40.876Z,120.43
2023-10-06T13:15:15.972Z,117.82
2023-10-06T13:17:50.836Z,121.30
2023-10-06T13:20:21.152Z,121.50
2023-10-06T13:22:51.301Z,121.50
2023-10-06T13:25:21.593Z,121.47
2023-10-06T13:27:52.773Z,121.80
2023-10-06T13:30:23.387Z,125.13
2023-10-06T13:32:59.741Z,121.35
2023-10-06T13:35:28.958Z,121.60
2023-10-06T13:38:01.035Z,126.68
2023-10-06T13:40:30.681Z,127.22
2023-10-06T13:42:59.715Z,149.05
2023-10-06T13:45:31.187Z,126.78
2023-10-06T13:48:05.107Z,122.30
2023-10-06T13:50:37.832Z,116.07
2023-10-06T13:53:11.305Z,119.93
2023-10-06T13:55:41.565Z,124.63
2023-10-06T13:58:10.379Z,123.13
2023-10-06T14:00:41.679Z,123.13
2023-10-06T14:03:14.985Z,123.85
2023-10-06T14:05:45.332Z,125.25
2023-10-06T14:08:19.192Z,126.28
2023-10-06T14:10:52.405Z,127.90
2023-10-06T14:13:26.246Z,126.88
2023-10-06T14:16:10.337Z,130.05
2023-10-06T14:18:42.006Z,129.98
2023-10-06T14:21:13.020Z,129.57
2023-10-06T14:23:48.450Z,127.82
2023-10-06T14:26:25.907Z,127.97
2023-10-06T14:28:57.125Z,127.60
2023-10-06T14:31:35.691Z,125.40
2023-10-06T14:34:35.918Z,122.03
2023-10-06T14:37:15.122Z,125.75
2023-10-06T14:40:12.305Z,122.50
2023-10-06T14:43:00.508Z,125.15
2023-10-06T14:45:47.976Z,123.15
2023-10-06T14:48:18.227Z,127.43
2023-10-06T14:50:58.073Z,128.68
2023-10-06T14:53:28.198Z,128.60
2023-10-06T14:55:59.632Z,127.90
2023-10-06T14:58:28.243Z,129.82
2023-10-06T15:01:04.106Z,130.05
2023-10-06T15:03:33.819Z,129.52
2023-10-06T15:06:07.669Z,132.98
2023-10-06T15:08:37.730Z,132.35
2023-10-06T15:11:11.077Z,131.55
2023-10-06T15:16:14.114Z,136.13
2023-10-06T15:18:48.625Z,133.32
2023-10-06T15:21:19.739Z,133.23
2023-10-06T15:23:52.991Z,129.05
2023-10-06T15:26:28.644Z,130.52
2023-10-06T15:28:57.317Z,132.20
2023-10-06T15:31:29.342Z,132.65
2023-10-06T15:33:58.591Z,131.50
2023-10-06T15:36:28.393Z,133.43
2023-10-06T15:39:18.758Z,133.27
2023-10-06T15:41:51.083Z,135.30
2023-10-06T15:44:21.934Z,137.45
2023-10-06T15:46:51.881Z,138.18
2023-10-06T15:49:20.833Z,138.63
2023-10-06T15:51:51.396Z,139.60
2023-10-06T15:54:21.696Z,139.30
2023-10-06T15:56:53.283Z,136.15
2023-10-06T15:59:26.908Z,138.88
2023-10-06T16:01:56.400Z,139.65
2023-10-06T16:04:29.210Z,169.65
2023-10-06T16:07:00.769Z,140.10
2023-10-06T16:09:29.691Z,134.43
2023-10-06T16:11:59.721Z,134.10
2023-10-06T16:14:29.847Z,134.70
2023-10-06T16:17:01.143Z,136.88
2023-10-06T16:19:31.120Z,139.63
2023-10-06T16:22:02.177Z,145.93
2023-10-06T16:24:30.717Z,153.55
2023-10-06T16:27:01.776Z,153.30
2023-10-06T16:29:32.812Z,153.65
2023-10-06T16:32:04.491Z,159.18
2023-10-06T16:34:34.396Z,162.68
2023-10-06T16:37:05.447Z,159.75
2023-10-06T16:39:38.687Z,164.20
2023-10-06T16:42:10.184Z,162.60
2023-10-06T16:44:42.585Z,166.68
2023-10-06T16:47:13.621Z,168.88
2023-10-06T16:49:43.686Z,160.48
2023-10-06T16:52:13.188Z,156.70
2023-10-06T16:54:46.869Z,155.45
2023-10-06T16:57:19.716Z,154.43
2023-10-06T16:59:50.222Z,154.30
2023-10-06T17:02:18.975Z,155.32
2023-10-06T17:04:47.609Z,154.55
2023-10-06T17:07:16.273Z,157.02
2023-10-06T17:09:47.679Z,157.20
2023-10-06T17:12:18.854Z,161.95
2023-10-06T17:14:47.602Z,160.95
2023-10-06T17:17:18.840Z,159.10
2023-10-06T17:19:48.517Z,159.63
2023-10-06T17:22:18.005Z,156.60
2023-10-06T17:24:53.305Z,152.50
2023-10-06T17:27:23.620Z,150.35
2023-10-06T17:29:57.102Z,151.13
2023-10-06T17:32:29.318Z,149.57
2023-10-06T17:34:58.319Z,150.85
2023-10-06T17:37:31.021Z,151.15
2023-10-06T17:40:01.526Z,149.65
2023-10-06T17:42:32.081Z,150.88
2023-10-06T17:45:04.249Z,149.48
2023-10-06T17:47:33.628Z,149.98
2023-10-06T17:50:02.864Z,148.57
2023-10-06T17:52:31.791Z,149.95
2023-10-06T17:55:02.777Z,148.13
2023-10-06T17:57:33.486Z,149.30
2023-10-06T18:00:09.493Z,147.55
2023-10-06T18:02:42.678Z,147.40
2023-10-06T18:05:12.693Z,148.60
2023-10-06T18:07:42.594Z,148.07
2023-10-06T18:10:13.353Z,147.23
2023-10-06T18:12:44.967Z,146.32
2023-10-06T18:15:14.044Z,144.77
2023-10-06T18:17:44.140Z,147.45
2023-10-06T18:20:14.826Z,148.85
2023-10-06T18:22:43.460Z,148.38
2023-10-06T18:25:13.735Z,147.20
2023-10-06T18:27:45.161Z,145.98
2023-10-06T18:30:17.501Z,146.07
2023-10-06T18:32:48.079Z,147.65
2023-10-06T18:35:16.833Z,148.13
2023-10-06T18:37:45.664Z,146.70
2023-10-06T18:40:15.720Z,147.32
2023-10-06T18:42:46.378Z,145.73
2023-10-06T18:45:16.310Z,145.73
2023-10-06T18:47:47.645Z,145.23
2023-10-06T18:50:21.163Z,145.20
2023-10-06T18:52:50.822Z,143.90
2023-10-06T18:55:24.960Z,143.32
2023-10-06T18:58:02.153Z,144.55
2023-10-06T19:00:34.124Z,146.52
2023-10-06T19:03:02.749Z,143.00
2023-10-06T19:05:31.394Z,144.07
2023-10-06T19:07:59.889Z,141.93
2023-10-06T19:10:28.597Z,145.98
2023-10-06T19:13:01.006Z,146.30
2023-10-06T19:15:32.929Z,147.20
2023-10-06T19:18:03.712Z,147.80
2023-10-06T19:20:34.228Z,143.45
2023-10-06T19:23:03.190Z,145.60
2023-10-06T19:25:31.829Z,143.75
2023-10-06T19:28:03.144Z,145.10
2023-10-06T19:30:32.894Z,147.40
2023-10-06T19:33:01.926Z,142.93
2023-10-06T19:35:31.752Z,142.57
2023-10-06T19:38:03.417Z,144.57
2023-10-06T19:40:33.289Z,144.82
2023-10-06T19:43:06.009Z,146.43
2023-10-06T19:45:47.101Z,145.98
2023-10-06T19:48:17.627Z,145.52
2023-10-06T19:50:49.189Z,146.45
2023-10-06T19:53:19.537Z,146.25
2023-10-06T19:55:50.948Z,143.93
2023-10-06T19:58:21.462Z,144.00
2023-10-06T20:00:52.660Z,146.27
2023-10-06T20:03:22.487Z,150.27
2023-10-06T20:05:54.739Z,151.43
2023-10-06T20:08:23.609Z,152.00
2023-10-06T20:10:56.619Z,148.23
2023-10-06T20:13:28.017Z,151.43
2023-10-06T20:15:58.668Z,152.30
2023-10-06T20:18:27.808Z,150.18
2023-10-06T20:20:56.558Z,145.07
2023-10-06T20:23:27.592Z,147.77
2023-10-06T20:25:56.693Z,146.30
2023-10-06T20:28:28.172Z,144.93
2023-10-06T20:30:57.840Z,148.68
2023-10-06T20:33:27.762Z,146.13
2023-10-06T20:35:56.758Z,146.43
2023-10-06T20:38:26.665Z,145.60
2023-10-06T20:40:56.764Z,150.48
2023-10-06T20:43:28.127Z,148.60
2023-10-06T20:45:58.142Z,151.77
2023-10-06T20:48:28.087Z,151.93
2023-10-06T20:50:56.735Z,150.80
2023-10-06T20:53:25.631Z,150.25
2023-10-06T20:56:03.487Z,149.38
2023-10-06T20:58:36.286Z,151.68
2023-10-06T21:01:08.295Z,152.80
2023-10-06T21:03:38.146Z,151.13
2023-10-06T21:06:10.288Z,150.15
2023-10-06T21:08:40.491Z,149.50
2023-10-06T21:11:10.612Z,147.00
2023-10-06T21:13:42.023Z,146.98
2023-10-06T21:16:13.058Z,150.52
2023-10-06T21:18:41.575Z,150.00
2023-10-06T21:21:11.655Z,152.63
2023-10-06T21:23:42.628Z,156.85
2023-10-06T21:26:15.314Z,159.55
2023-10-06T21:28:46.774Z,155.18
2023-10-06T21:31:15.844Z,156.18
2023-10-06T21:33:45.572Z,152.20
2023-10-06T21:36:15.471Z,158.13
2023-10-06T21:38:46.378Z,158.10
2023-10-06T21:41:16.634Z,156.95
2023-10-06T21:43:47.995Z,158.52
2023-10-06T21:46:17.853Z,150.95
2023-10-06T21:48:48.796Z,154.20
2023-10-06T21:51:18.708Z,159.60
2023-10-06T21:53:50.093Z,156.05
2023-10-06T21:56:18.900Z,161.85
2023-10-06T21:58:50.459Z,160.57
2023-10-06T22:01:23.170Z,162.48
2023-10-06T22:03:54.492Z,159.48
2023-10-06T22:06:24.956Z,159.93
2023-10-06T22:08:54.758Z,157.20
2023-10-06T22:11:27.018Z,158.95
2023-10-06T22:13:58.354Z,160.25
2023-10-06T22:16:28.460Z,161.98
2023-10-06T22:18:59.167Z,164.48
2023-10-06T22:21:27.733Z,162.50
2023-10-06T22:23:57.790Z,164.23
2023-10-06T22:26:29.053Z,168.25
2023-10-06T22:28:59.355Z,177.60
2023-10-06T22:31:28.139Z,175.23
2023-10-06T22:33:58.157Z,179.40
2023-10-06T22:36:29.301Z,185.90
2023-10-06T22:38:59.401Z,185.65
2023-10-06T22:41:29.697Z,181.68
2023-10-06T22:44:03.240Z,173.23
2023-10-06T22:46:31.905Z,185.65
2023-10-06T22:49:01.648Z,195.45
2023-10-06T22:51:30.816Z,187.88
2023-10-06T22:54:02.676Z,189.73
2023-10-06T22:56:32.703Z,181.60
2023-10-06T22:59:06.189Z,182.23
2023-10-06T23:01:36.009Z,182.95
2023-10-06T23:04:09.284Z,178.55
2023-10-06T23:06:40.077Z,177.57
2023-10-06T23:09:13.796Z,187.02
2023-10-06T23:11:46.437Z,186.35
2023-10-06T23:14:17.624Z,182.18
2023-10-06T23:16:47.746Z,183.88
2023-10-06T23:19:17.993Z,182.30
2023-10-06T23:21:49.704Z,176.98
2023-10-06T23:24:18.229Z,166.38
2023-10-06T23:26:46.796Z,166.50
2023-10-06T23:29:23.515Z,162.70
2023-10-06T23:31:53.798Z,159.52
2023-10-06T23:34:24.854Z,162.60
2023-10-06T23:36:56.208Z,159.60
2023-10-06T23:39:26.511Z,160.82
2023-10-06T23:41:56.237Z,158.93
2023-10-06T23:44:31.471Z,163.00
2023-10-06T23:47:03.962Z,161.45
2023-10-06T23:49:35.217Z,162.13
2023-10-06T23:52:06.194Z,163.07
2023-10-06T23:54:36.320Z,162.90
2023-10-06T23:57:09.515Z,163.40
2023-10-06T23:59:44.962Z,166.63
